Latest Weather Observations for St Kilda Harbour RMYS

IDV60801

Issued at 8:05 am EDT Monday 24 November 2014 (issued every 30 minutes, with the page automatically refreshed every 10 minutes)

About weather observations | Map of weather stations | Latest weather observations for VIC | Other Formats
Station Details ID: 086220 Name: ST KILDA HARBOUR - RMYS Lat: -37.86 Lon: 144.96 Height: 6.4 m
Data from the previous 72 hours. | See also: Recent months for locations in Victoria
Date/Time
EDT
Temp
°C
App
Temp
°C
Dew
Point
Rel
Hum
%
Delta-T
°C
Wind Press
QNH
hPa
Press
MSL
hPa
Rain
since 9 am
mm
Dir
 
Spd
km/h
Gust
km/h
Spd
kts
Gust
kts
24/08:00am - - - - - NNE 7 13 4 7 - - -
24/07:30am - - - - - NE 6 13 3 7 - - -
24/07:00am - - - - - NE 9 13 5 7 - - -
24/06:30am - - - - - ENE 2 4 1 2 - - -
24/06:00am - - - - - N 9 11 5 6 - - -
24/05:30am - - - - - N 6 9 3 5 - - -
24/05:00am - - - - - NNW 4 9 2 5 - - -
24/04:30am - - - - - NE 4 7 2 4 - - -
24/04:00am - - - - - ENE 6 7 3 4 - - -
24/03:30am - - - - - S 2 4 1 2 - - -
24/03:00am - - - - - N 2 6 1 3 - - -
24/02:30am - - - - - N 4 6 2 3 - - -
24/02:00am - - - - - E 2 4 1 2 - - -
24/01:30am - - - - - ENE 6 9 3 5 - - -
24/01:00am - - - - - E 9 11 5 6 - - -
24/12:30am - - - - - ESE 7 11 4 6 - - -
24/12:00am - - - - - SE 9 15 5 8 - - -
 
Date/Time
EDT
Temp
°C
App
Temp
°C
Dew
Point
Rel
Hum
%
Delta-T
°C
Wind Press
QNH
hPa
Press
MSL
hPa
Rain
since 9 am
mm
Dir
 
Spd
km/h
Gust
km/h
Spd
kts
Gust
kts
23/11:30pm - - - - - SE 9 13 5 7 - - -
23/11:00pm - - - - - ESE 9 15 5 8 - - -
23/10:30pm - - - - - SSE 15 20 8 11 - - -
23/10:00pm - - - - - SSE 17 22 9 12 - - -
23/09:30pm - - - - - SE 15 20 8 11 - - -
23/09:00pm - - - - - SE 17 22 9 12 - - -
23/08:30pm - - - - - SSE 17 22 9 12 - - -
23/08:00pm - - - - - SE 17 24 9 13 - - -
23/07:30pm - - - - - SE 15 20 8 11 - - -
23/07:00pm - - - - - SE 17 20 9 11 - - -
23/06:30pm - - - - - S 28 33 15 18 - - -
23/06:00pm - - - - - S 28 33 15 18 - - -
23/05:30pm - - - - - S 26 28 14 15 - - -
23/05:00pm - - - - - S 30 35 16 19 - - -
23/04:30pm - - - - - S 30 35 16 19 - - -
23/04:00pm - - - - - S 33 39 18 21 - - -
23/03:30pm - - - - - S 32 37 17 20 - - -
23/03:00pm - - - - - S 32 35 17 19 - - -
23/02:30pm - - - - - S 28 32 15 17 - - -
23/02:00pm - - - - - S 26 30 14 16 - - -
23/01:30pm - - - - - S 20 22 11 12 - - -
23/01:00pm - - - - - S 20 24 11 13 - - -
23/12:30pm - - - - - S 20 24 11 13 - - -
23/12:00pm - - - - - S 20 24 11 13 - - -
23/11:30am - - - - - S 19 22 10 12 - - -
23/11:00am - - - - - S 17 19 9 10 - - -
23/10:30am - - - - - SSW 15 17 8 9 - - -
23/10:00am - - - - - SSW 13 17 7 9 - - -
23/09:30am - - - - - SSW 17 19 9 10 - - -
23/09:00am - - - - - SSW 13 15 7 8 - - -
23/08:30am - - - - - SSW 15 17 8 9 - - -
23/08:00am - - - - - SSW 13 15 7 8 - - -
23/07:30am - - - - - SSW 13 15 7 8 - - -
23/07:00am - - - - - SW 9 11 5 6 - - -
23/06:30am - - - - - SW 9 11 5 6 - - -
23/06:00am - - - - - W 9 11 5 6 - - -
23/05:30am - - - - - W 11 13 6 7 - - -
23/05:00am - - - - - WSW 15 19 8 10 - - -
23/04:30am - - - - - W 19 22 10 12 - - -
23/04:00am - - - - - WSW 24 28 13 15 - - -
23/03:30am - - - - - WSW 24 28 13 15 - - -
23/03:00am - - - - - SW 20 24 11 13 - - -
23/02:30am - - - - - SSW 11 15 6 8 - - -
23/02:00am - - - - - SW 13 17 7 9 - - -
23/01:30am - - - - - S 6 9 3 5 - - -
23/01:00am - - - - - SSE 4 6 2 3 - - -
23/12:30am - - - - - SE 4 7 2 4 - - -
23/12:00am - - - - - S 7 9 4 5 - - -
 
Date/Time
EDT
Temp
°C
App
Temp
°C
Dew
Point
Rel
Hum
%
Delta-T
°C
Wind Press
QNH
hPa
Press
MSL
hPa
Rain
since 9 am
mm
Dir
 
Spd
km/h
Gust
km/h
Spd
kts
Gust
kts
22/11:30pm - - - - - S 11 17 6 9 - - -
22/11:00pm - - - - - SSW 17 22 9 12 - - -
22/10:30pm - - - - - S 11 19 6 10 - - -
22/10:00pm - - - - - S 24 33 13 18 - - -
22/09:30pm - - - - - NW 22 32 12 17 - - -
22/09:00pm - - - - - NNW 24 32 13 17 - - -
22/08:30pm - - - - - NNW 32 43 17 23 - - -
22/08:11pm - - - - - NNW 35 54 19 29 - - -
22/08:00pm - - - - - NNW 35 54 19 29 - - -
22/07:31pm - - - - - NNW 35 56 19 30 - - -
22/07:30pm - - - - - NNW 37 56 20 30 - - -
22/07:04pm - - - - - NNW 28 48 15 26 - - -
22/07:00pm - - - - - NNW 33 46 18 25 - - -
22/06:30pm - - - - - NNW 37 57 20 31 - - -
22/06:01pm - - - - - NNW 32 50 17 27 - - -
22/06:00pm - - - - - N 33 50 18 27 - - -
22/05:30pm - - - - - NNW 39 52 21 28 - - -
22/05:00pm - - - - - N 43 63 23 34 - - -
22/04:43pm - - - - - N 39 61 21 33 - - -
22/04:30pm - - - - - N 37 56 20 30 - - -
22/04:13pm - - - - - N 30 56 16 30 - - -
22/04:00pm - - - - - N 30 37 16 20 - - -
22/03:30pm - - - - - N 26 37 14 20 - - -
22/03:00pm - - - - - N 32 54 17 29 - - -
22/02:31pm - - - - - N 30 48 16 26 - - -
22/02:30pm - - - - - N 32 48 17 26 - - -
22/02:00pm - - - - - N 33 48 18 26 - - -
22/01:45pm - - - - - N 28 50 15 27 - - -
22/01:30pm - - - - - N 32 44 17 24 - - -
22/01:00pm - - - - - N 24 37 13 20 - - -
22/12:30pm - - - - - NNE 26 41 14 22 - - -
22/12:00pm - - - - - NNW 30 43 16 23 - - -
22/11:56am - - - - - NNW 28 39 15 21 - - -
22/11:30am - - - - - NNE 6 13 3 7 - - -
22/11:00am - - - - - NNE 9 13 5 7 - - -
22/10:30am - - - - - NNE 13 19 7 10 - - -
22/10:00am - - - - - NNE 9 15 5 8 - - -
22/09:30am - - - - - NNE 7 11 4 6 - - -
22/09:00am - - - - - NNE 7 11 4 6 - - -
22/08:30am - - - - - NNE 7 9 4 5 - - -
22/08:00am - - - - - NNE 6 9 3 5 - - -
22/07:30am - - - - - ENE 4 7 2 4 - - -
22/07:00am - - - - - NNE 6 7 3 4 - - -
22/06:30am - - - - - NNE 9 19 5 10 - - -
22/06:00am - - - - - NNE 7 11 4 6 - - -
22/05:30am - - - - - NNE 9 15 5 8 - - -
22/05:00am - - - - - N 6 9 3 5 - - -
22/04:30am - - - - - N 6 7 3 4 - - -
22/04:00am - - - - - NNW 9 11 5 6 - - -
22/03:30am - - - - - NNW 7 11 4 6 - - -
22/03:00am - - - - - NE 4 6 2 3 - - -
22/02:30am - - - - - CALM 0 4 0 2 - - -
22/02:00am - - - - - S 4 7 2 4 - - -
22/01:30am - - - - - SSE 4 6 2 3 - - -
22/01:00am - - - - - SE 9 13 5 7 - - -
22/12:30am - - - - - ESE 7 11 4 6 - - -
22/12:00am - - - - - ESE 9 13 5 7 - - -
 
Date/Time
EDT
Temp
°C
App
Temp
°C
Dew
Point
Rel
Hum
%
Delta-T
°C
Wind Press
QNH
hPa
Press
MSL
hPa
Rain
since 9 am
mm
Dir
 
Spd
km/h
Gust
km/h
Spd
kts
Gust
kts
21/11:30pm - - - - - ESE 7 9 4 5 - - -
21/11:00pm - - - - - SE 11 15 6 8 - - -
21/10:30pm - - - - - SE 9 17 5 9 - - -
21/10:00pm - - - - - SE 13 19 7 10 - - -
21/09:30pm - - - - - SSE 15 20 8 11 - - -
21/09:00pm - - - - - SE 11 19 6 10 - - -
21/08:30pm - - - - - S 11 11 6 6 - - -
21/08:00pm - - - - - S 17 19 9 10 - - -
21/07:30pm - - - - - S 22 26 12 14 - - -
21/07:00pm - - - - - S 26 30 14 16 - - -
21/06:30pm - - - - - S 24 28 13 15 - - -
21/06:00pm - - - - - S 24 28 13 15 - - -
21/05:30pm - - - - - S 26 28 14 15 - - -
21/05:00pm - - - - - S 26 30 14 16 - - -
21/04:30pm - - - - - S 26 30 14 16 - - -
21/04:00pm - - - - - S 22 26 12 14 - - -
21/03:30pm - - - - - S 17 20 9 11 - - -
21/03:00pm - - - - - S 11 13 6 7 - - -
21/02:30pm - - - - - S 9 13 5 7 - - -
21/02:00pm - - - - - S 11 15 6 8 - - -
21/01:30pm - - - - - S 11 15 6 8 - - -
21/01:00pm - - - - - S 15 20 8 11 - - -
21/12:30pm - - - - - S 17 22 9 12 - - -
21/12:00pm - - - - - SSW 17 20 9 11 - - -
21/11:30am - - - - - SSW 24 32 13 17 - - -
21/11:00am - - - - - SSW 20 24 11 13 - - -
21/10:30am - - - - - SSW 20 24 11 13 - - -
21/10:00am - - - - - WSW 20 26 11 14 - - -
21/09:30am - - - - - WSW 28 35 15 19 - - -
21/09:00am - - - - - WSW 32 37 17 20 - - -
21/08:30am - - - - - WSW 37 44 20 24 - - -

Other Formats:

Comma delimited format used in spreadsheet applications
http://www.bom.gov.au/fwo/IDV60801/IDV60801.95864.axf

JavaScript Object Notation format (JSON) in row-major order
http://www.bom.gov.au/fwo/IDV60801/IDV60801.95864.json